Time;durP1;ratioP1;P1;durP2;ratioP2;P2;SDS_P1;SDS_P2;PMS_P1;PMS_P2;Temp;Humidity;BMP_temperature;BMP_pressure;BME280_temperature;BME280_humidity;BME280_pressure;Samples;Min_cycle;Max_cycle;Signal;HPM_P1;HPM_P2
2022/11/17 00:00:08;;;;;;;9.55;5.22;;;7.90;99.90;;;6.84;100.00;95627.69;5078624;28;20490;-78
2022/11/17 00:02:35;;;;;;;9.57;4.72;;;7.90;99.90;;;6.83;100.00;95615.59;5078706;28;20425;-78
2022/11/17 00:05:03;;;;;;;11.77;5.68;;;7.90;99.90;;;6.79;100.00;95606.66;5079450;28;20892;-78
2022/11/17 00:07:29;;;;;;;16.20;6.07;;;7.90;99.90;;;6.80;100.00;95603.75;5078947;28;20400;-77
2022/11/17 00:09:55;;;;;;;12.68;5.57;;;7.80;99.90;;;6.80;100.00;95606.41;5078162;28;20825;-78
2022/11/17 00:15:07;;;;;;;11.82;6.03;;;7.90;99.90;;;6.89;100.00;95589.00;5078463;28;20481;-77
2022/11/17 00:17:33;;;;;;;10.77;5.78;;;7.90;99.90;;;6.87;100.00;95583.22;5080723;28;20461;-77
2022/11/17 00:22:43;;;;;;;15.30;6.82;;;8.00;99.90;;;6.98;100.00;95595.25;5077677;28;20399;-78
2022/11/17 00:25:09;;;;;;;10.52;6.22;;;8.00;99.90;;;6.93;100.00;95594.50;5078866;28;20406;-77
2022/11/17 00:27:37;;;;;;;14.95;7.57;;;8.00;99.90;;;6.98;100.00;95605.00;5078344;28;20418;-78
2022/11/17 00:30:04;;;;;;;11.50;7.05;;;8.00;99.90;;;6.93;100.00;95602.38;5077679;28;20411;-77
2022/11/17 00:35:14;;;;;;;11.20;6.85;;;8.00;99.90;;;6.84;100.00;95596.91;5082760;28;20401;-78
2022/11/17 00:40:25;;;;;;;12.48;6.35;;;7.90;99.90;;;6.88;100.00;95587.41;5081727;28;20945;-77
2022/11/17 00:42:52;;;;;;;12.57;6.68;;;8.00;99.90;;;6.99;100.00;95588.91;5080258;28;20789;-77
2022/11/17 00:45:18;;;;;;;12.95;6.80;;;8.00;99.90;;;7.01;100.00;95588.66;5083441;28;20417;-77
2022/11/17 00:47:44;;;;;;;16.73;7.10;;;8.00;99.90;;;6.96;100.00;95591.31;5087410;28;20398;-78
2022/11/17 00:50:10;;;;;;;18.53;8.33;;;8.00;99.90;;;6.93;100.00;95587.38;5092787;28;20594;-77
2022/11/17 00:52:36;;;;;;;14.68;8.00;;;8.00;99.90;;;7.01;100.00;95578.13;5092609;28;20398;-78
2022/11/17 00:55:02;;;;;;;12.82;7.85;;;8.00;99.90;;;7.04;100.00;95566.28;5092015;28;20896;-77
2022/11/17 00:57:28;;;;;;;13.90;7.88;;;8.00;99.90;;;7.00;100.00;95560.78;5092996;28;20406;-77
2022/11/17 00:59:55;;;;;;;15.60;7.97;;;8.10;99.90;;;7.01;100.00;95559.72;5092531;28;20416;-77
2022/11/17 01:02:21;;;;;;;15.63;8.33;;;8.10;99.90;;;7.04;100.00;95555.78;5092499;28;20791;-77
2022/11/17 01:04:47;;;;;;;15.02;8.07;;;8.10;99.90;;;7.00;100.00;95556.31;5091987;28;20398;-77
2022/11/17 01:07:13;;;;;;;15.40;8.10;;;8.10;99.90;;;6.96;100.00;95557.91;5092591;28;20390;-77
2022/11/17 01:09:39;;;;;;;16.97;8.93;;;8.00;99.90;;;6.97;100.00;95554.22;5092443;28;20402;-77
2022/11/17 01:12:05;;;;;;;16.83;8.65;;;8.00;99.90;;;6.95;100.00;95548.44;5092391;28;20551;-77
2022/11/17 01:14:31;;;;;;;13.20;8.57;;;8.00;99.90;;;6.99;100.00;95528.41;5091510;28;20493;-77
2022/11/17 01:16:58;;;;;;;15.18;8.68;;;8.00;99.90;;;7.00;100.00;95526.56;5092453;28;20494;-77
2022/11/17 01:19:24;;;;;;;17.50;9.03;;;8.10;99.90;;;6.96;100.00;95512.41;5092094;28;20896;-77
2022/11/17 01:21:50;;;;;;;13.98;8.50;;;8.00;99.90;;;6.93;100.00;95508.47;5092322;28;20394;-75
2022/11/17 01:24:17;;;;;;;20.10;9.05;;;8.00;99.90;;;6.91;100.00;95510.63;5091525;28;20492;-76
2022/11/17 01:26:45;;;;;;;17.55;9.55;;;8.00;99.90;;;6.93;100.00;95516.38;5092322;28;20402;-76
2022/11/17 01:29:13;;;;;;;15.27;9.25;;;8.00;99.90;;;6.88;100.00;95508.53;5092109;28;20760;-76
2022/11/17 01:31:42;;;;;;;17.02;9.30;;;8.00;99.90;;;6.92;100.00;95512.16;5092262;28;20398;-76
2022/11/17 01:34:10;;;;;;;19.53;9.03;;;8.00;99.90;;;6.92;100.00;95506.91;5091303;28;20390;-76
2022/11/17 01:39:25;;;;;;;14.03;9.43;;;8.00;99.90;;;6.95;100.00;95498.47;5091946;28;20449;-76
2022/11/17 01:41:52;;;;;;;17.20;9.63;;;8.00;99.90;;;6.93;100.00;95505.06;5090720;28;20775;-76
2022/11/17 01:44:57;;;;;;;15.05;9.13;;;8.00;99.90;;;6.88;100.00;95489.31;5091017;28;20413;-76
2022/11/17 01:47:30;;;;;;;20.92;10.23;;;8.00;99.90;;;6.90;100.00;95489.84;5091656;28;20394;-76
2022/11/17 01:50:02;;;;;;;18.23;10.25;;;8.00;99.90;;;6.86;100.00;95484.34;5092164;28;20394;-77
2022/11/17 01:52:29;;;;;;;16.55;10.02;;;7.90;99.90;;;6.90;100.00;95484.59;5091854;28;20413;-76
2022/11/17 01:54:57;;;;;;;16.90;9.73;;;7.90;99.90;;;6.89;100.00;95477.75;5090793;28;20409;-76
2022/11/17 01:57:29;;;;;;;16.63;9.57;;;7.90;99.90;;;6.87;100.00;95464.88;5092021;28;20390;-76
2022/11/17 02:00:00;;;;;;;18.88;10.25;;;7.90;99.90;;;6.88;100.00;95452.50;5091961;28;20418;-77
2022/11/17 02:02:27;;;;;;;16.48;9.20;;;7.90;99.90;;;6.92;100.00;95456.94;5091612;28;20914;-77
2022/11/17 02:05:04;;;;;;;16.77;9.77;;;8.00;99.90;;;6.99;100.00;95446.88;5090753;28;20806;-76
2022/11/17 02:07:34;;;;;;;16.60;9.35;;;8.00;99.90;;;6.95;100.00;95443.25;5091395;28;20451;-76
2022/11/17 02:10:01;;;;;;;18.85;10.27;;;8.00;99.90;;;6.85;100.00;95434.63;5089974;28;20433;-75
2022/11/17 02:12:30;;;;;;;15.75;9.45;;;7.90;99.90;;;6.75;100.00;95430.25;5091520;28;20548;-76
2022/11/17 02:14:56;;;;;;;17.20;9.77;;;7.90;99.90;;;6.66;100.00;95428.47;5090420;28;20848;-76
2022/11/17 02:17:34;;;;;;;16.30;8.97;;;7.70;99.90;;;6.59;100.00;95421.69;5091216;28;20425;-76
2022/11/17 02:20:08;;;;;;;13.35;9.18;;;7.70;99.90;;;6.53;100.00;95419.38;5091148;28;20495;-76
2022/11/17 02:23:20;;;;;;;19.08;10.20;;;7.60;99.90;;;6.45;100.00;95417.31;5106758;28;20836;-76
2022/11/17 02:26:30;;;;;;;16.25;10.38;;;7.60;99.90;;;6.36;100.00;95411.84;5090919;28;20872;-76
2022/11/17 02:29:04;;;;;;;19.15;10.73;;;7.50;99.90;;;6.29;100.00;95400.06;5087856;28;20966;-76
2022/11/17 02:31:40;;;;;;;19.58;10.77;;;7.40;99.90;;;6.23;100.00;95391.44;5090969;28;20386;-77
2022/11/17 02:34:20;;;;;;;18.65;11.05;;;7.40;99.90;;;6.19;100.00;95395.66;5090087;28;20402;-77
2022/11/17 02:36:53;;;;;;;19.95;11.35;;;7.30;99.90;;;6.20;100.00;95398.03;5090549;28;20408;-76
2022/11/17 02:39:24;;;;;;;18.30;10.27;;;7.30;99.90;;;6.14;100.00;95385.97;5090614;28;20488;-76
2022/11/17 02:41:57;;;;;;;18.73;10.07;;;7.30;99.90;;;6.06;100.00;95377.88;5090736;28;20940;-76
2022/11/17 02:44:32;;;;;;;17.88;10.68;;;7.20;99.90;;;6.02;100.00;95343.47;5089941;28;20433;-77
2022/11/17 02:47:05;;;;;;;23.77;11.48;;;7.10;99.90;;;6.06;100.00;95344.53;5090682;28;20519;-76
2022/11/17 02:49:36;;;;;;;19.75;11.18;;;7.20;99.90;;;6.06;100.00;95347.16;5090698;28;20421;-76
2022/11/17 02:52:05;;;;;;;18.77;10.57;;;7.20;99.90;;;6.13;100.00;95359.97;5090517;28;20466;-76
2022/11/17 02:54:32;;;;;;;18.55;10.13;;;7.20;99.90;;;6.18;100.00;95358.09;5089676;28;20390;-76
2022/11/17 02:56:59;;;;;;;15.98;9.82;;;7.30;99.90;;;6.17;100.00;95359.16;5088797;28;20822;-76
2022/11/17 02:59:32;;;;;;;20.42;9.93;;;7.30;99.90;;;6.17;100.00;95351.25;5090414;28;20525;-76
2022/11/17 03:02:26;;;;;;;15.73;9.82;;;7.30;99.90;;;6.23;100.00;95365.16;5084507;28;20828;-76
2022/11/17 03:05:08;;;;;;;15.75;8.73;;;7.30;99.90;;;6.26;100.00;95376.97;5082455;28;20417;-76
2022/11/17 03:07:56;;;;;;;15.45;9.30;;;7.30;99.90;;;6.30;100.00;95383.25;5080439;28;20827;-76
2022/11/17 03:10:31;;;;;;;16.83;9.02;;;7.40;99.90;;;6.37;100.00;95386.38;5086749;28;20400;-75
2022/11/17 03:13:03;;;;;;;20.25;9.38;;;7.40;99.90;;;6.40;100.00;95401.56;5069205;28;20403;-76
2022/11/17 03:15:44;;;;;;;14.00;8.82;;;7.50;99.90;;;6.46;100.00;95400.50;5069996;28;20900;-76
2022/11/17 03:18:19;;;;;;;16.55;9.90;;;7.50;99.90;;;6.54;100.00;95381.53;5069792;28;20511;-75
2022/11/17 03:20:56;;;;;;;16.33;9.05;;;7.60;99.90;;;6.56;100.00;95364.41;5069809;28;20404;-75
2022/11/17 03:23:29;;;;;;;13.88;8.57;;;7.70;99.90;;;6.60;100.00;95359.38;5069062;28;20896;-75
2022/11/17 03:25:59;;;;;;;13.02;9.07;;;7.70;99.90;;;6.67;100.00;95351.19;5070008;28;20403;-75
2022/11/17 03:30:58;;;;;;;12.05;7.97;;;7.70;99.90;;;6.72;100.00;95362.44;5087232;28;20442;-73
2022/11/17 03:33:26;;;;;;;9.18;6.50;;;7.80;99.90;;;6.74;100.00;95364.78;5088920;28;20428;-74
2022/11/17 03:35:58;;;;;;;11.20;6.88;;;7.80;99.90;;;6.75;100.00;95364.53;5089970;28;20398;-72
2022/11/17 03:38:28;;;;;;;10.38;6.43;;;7.80;99.90;;;6.76;100.00;95371.34;5089635;28;20759;-73
2022/11/17 03:40:59;;;;;;;9.40;6.25;;;7.80;99.90;;;6.80;100.00;95355.78;5089746;28;20398;-73
2022/11/17 03:43:27;;;;;;;9.02;5.88;;;7.80;99.90;;;6.80;100.00;95358.44;5089093;28;20394;-73
2022/11/17 03:45:57;;;;;;;7.60;5.20;;;7.90;99.90;;;6.86;100.00;95352.06;5089808;28;20421;-73
2022/11/17 03:48:32;;;;;;;9.70;5.15;;;7.90;99.90;;;6.91;100.00;95357.28;5089665;28;20405;-73
2022/11/17 03:51:06;;;;;;;14.57;5.80;;;7.90;99.90;;;6.94;100.00;95343.56;5089638;28;20502;-72
2022/11/17 03:53:33;;;;;;;12.93;5.80;;;8.00;99.90;;;6.95;100.00;95347.78;5089322;28;20418;-73
2022/11/17 03:56:08;;;;;;;10.65;5.63;;;8.00;99.90;;;6.95;100.00;95350.41;5088285;28;20405;-73
2022/11/17 03:58:43;;;;;;;7.72;4.78;;;8.00;99.90;;;6.95;100.00;95345.13;5089594;28;20450;-73
2022/11/17 04:01:11;;;;;;;10.85;5.20;;;8.00;99.90;;;6.96;100.00;95349.34;5089541;28;20413;-75
2022/11/17 04:03:38;;;;;;;10.88;5.25;;;8.00;99.90;;;6.97;100.00;95343.03;5088563;28;20468;-74
2022/11/17 04:06:05;;;;;;;9.27;5.30;;;8.10;99.90;;;6.99;100.00;95335.66;5089484;28;20410;-73
2022/11/17 04:08:30;;;;;;;8.87;4.97;;;8.10;99.90;;;6.97;100.00;95341.19;5088659;28;20413;-72
2022/11/17 04:16:27;;;;;;;6.93;4.65;;;8.10;99.90;;;6.97;100.00;95332.50;5093486;28;20443;-74
2022/11/17 04:18:53;;;;;;;9.23;4.75;;;8.00;99.90;;;6.96;100.00;95336.97;5093126;28;20817;-74
2022/11/17 04:21:19;;;;;;;12.27;5.40;;;8.00;99.90;;;6.93;100.00;95340.16;5093234;28;20409;-75
2022/11/17 04:23:45;;;;;;;10.07;4.90;;;8.00;99.90;;;6.96;100.00;95339.59;5092434;28;20851;-74
2022/11/17 04:28:56;;;;;;;10.63;5.20;;;8.00;99.90;;;6.96;100.00;95336.97;5093028;28;20401;-74
2022/11/17 04:31:27;;;;;;;11.02;5.57;;;8.00;99.90;;;6.98;100.00;95331.44;5093225;28;20402;-74
2022/11/17 04:33:55;;;;;;;12.02;5.47;;;8.10;99.90;;;7.01;100.00;95325.63;5098114;28;20406;-75
2022/11/17 04:36:24;;;;;;;12.75;5.55;;;8.10;99.90;;;7.03;100.00;95325.34;5113395;28;20405;-74
2022/11/17 04:38:52;;;;;;;12.13;6.03;;;8.10;99.90;;;7.05;100.00;95328.47;5113225;28;20405;-74
2022/11/17 04:44:06;;;;;;;11.75;5.88;;;8.10;99.90;;;7.09;100.00;95326.84;5112411;28;20395;-74
2022/11/17 04:46:35;;;;;;;12.98;6.20;;;8.10;99.90;;;7.07;100.00;95326.38;5113164;28;20488;-74
2022/11/17 04:49:02;;;;;;;11.32;5.28;;;8.20;99.90;;;7.11;100.00;95328.16;5113022;28;20449;-74
2022/11/17 04:51:29;;;;;;;13.85;6.03;;;8.20;99.90;;;7.12;100.00;95328.94;5112928;28;20495;-74
2022/11/17 04:53:55;;;;;;;14.75;6.57;;;8.20;99.90;;;7.12;100.00;95332.34;5095265;28;20914;-73
2022/11/17 04:56:23;;;;;;;10.27;5.20;;;8.20;99.90;;;7.12;100.00;95334.19;5075937;28;20407;-73
2022/11/17 04:58:50;;;;;;;11.35;5.70;;;8.20;99.90;;;7.13;100.00;95326.03;5085810;28;20414;-73
2022/11/17 05:01:21;;;;;;;15.17;5.83;;;8.20;99.90;;;7.16;100.00;95329.94;5091350;28;20843;-73
2022/11/17 05:03:50;;;;;;;14.77;6.63;;;8.20;99.90;;;7.14;100.00;95311.78;5087337;28;20394;-73
2022/11/17 05:06:20;;;;;;;12.38;6.10;;;8.20;99.90;;;7.13;100.00;95318.13;5062313;28;20506;-73
2022/11/17 05:08:47;;;;;;;17.95;7.40;;;8.20;99.90;;;7.07;100.00;95315.84;5080445;28;20392;-73
2022/11/17 05:14:00;;;;;;;12.77;6.68;;;8.10;99.90;;;6.96;100.00;95326.47;5071271;28;20391;-72
2022/11/17 05:19:15;;;;;;;15.75;7.07;;;8.00;99.90;;;6.90;100.00;95338.09;5091932;28;20421;-73
2022/11/17 05:21:41;;;;;;;28.00;8.50;;;8.00;99.90;;;6.86;100.00;95346.78;5091901;28;20425;-73
2022/11/17 05:24:08;;;;;;;21.03;8.90;;;8.00;99.90;;;6.83;100.00;95337.63;5090742;28;20519;-73
2022/11/17 05:26:36;;;;;;;17.25;8.25;;;7.90;99.90;;;6.81;100.00;95337.13;5085210;28;20445;-73
2022/11/17 05:29:05;;;;;;;18.65;8.05;;;7.90;99.90;;;6.84;100.00;95343.69;5091471;28;20543;-72
2022/11/17 05:31:31;;;;;;;14.55;7.47;;;7.90;99.90;;;6.86;100.00;95336.28;5108303;28;20396;-72
2022/11/17 05:33:58;;;;;;;17.25;7.13;;;7.90;99.90;;;6.88;100.00;95344.69;5103567;28;20470;-72
2022/11/17 05:36:27;;;;;;;24.40;8.73;;;7.90;99.90;;;6.84;100.00;95339.19;5091802;28;20462;-73
2022/11/17 05:38:54;;;;;;;14.82;6.78;;;7.90;99.90;;;6.78;100.00;95353.44;5091606;28;20414;-73
2022/11/17 05:41:20;;;;;;;18.35;7.47;;;7.90;99.90;;;6.78;100.00;95350.03;5073500;28;20767;-73
2022/11/17 05:43:49;;;;;;;13.57;6.50;;;7.90;99.90;;;6.81;100.00;95358.16;5090938;28;20879;-72
2022/11/17 05:46:15;;;;;;;16.17;7.37;;;7.90;99.90;;;6.85;100.00;95347.84;5091708;28;20511;-72
2022/11/17 05:48:41;;;;;;;12.98;6.68;;;7.90;99.90;;;6.90;100.00;95361.75;5069658;28;20475;-72
2022/11/17 05:51:07;;;;;;;16.13;7.23;;;8.00;99.90;;;6.90;100.00;95350.47;5084977;28;20829;-72
2022/11/17 05:53:34;;;;;;;14.80;6.28;;;7.90;99.90;;;6.88;100.00;95339.41;5084469;28;20438;-74
2022/11/17 05:56:17;;;;;;;18.73;8.18;;;8.00;99.90;;;6.77;100.00;95349.22;5091357;28;20401;-72
2022/11/17 05:58:46;;;;;;;22.65;9.32;;;7.90;99.90;;;6.68;100.00;95356.16;5091315;28;20760;-73
2022/11/17 06:01:15;;;;;;;22.05;8.48;;;7.80;99.90;;;6.56;100.00;95355.72;5091372;28;20410;-72
2022/11/17 06:03:45;;;;;;;20.75;8.50;;;7.70;99.90;;;6.50;100.00;95355.00;5090411;28;20481;-74
2022/11/17 06:06:12;;;;;;;16.85;8.40;;;7.60;99.90;;;6.51;100.00;95347.88;5073358;28;20417;-74
2022/11/17 06:08:40;;;;;;;17.50;8.27;;;7.60;99.90;;;6.55;100.00;95354.16;5090900;28;20852;-74
2022/11/17 06:11:06;;;;;;;20.65;7.85;;;7.70;99.90;;;6.61;100.00;95360.97;5091191;28;20394;-74
2022/11/17 06:13:32;;;;;;;18.63;8.73;;;7.70;99.90;;;6.65;100.00;95350.66;5090139;28;20497;-74
2022/11/17 06:16:05;;;;;;;18.17;7.90;;;7.70;99.90;;;6.69;100.00;95347.19;5090968;28;20493;-74
2022/11/17 06:18:37;;;;;;;16.77;7.50;;;7.80;99.90;;;6.74;100.00;95339.28;5090810;28;20402;-72
2022/11/17 06:21:04;;;;;;;19.75;8.05;;;7.80;99.90;;;6.78;100.00;95340.28;5090901;28;20448;-72
2022/11/17 06:23:32;;;;;;;16.13;7.45;;;7.80;99.90;;;6.78;100.00;95329.00;5090181;28;20767;-72
2022/11/17 06:26:02;;;;;;;12.90;6.38;;;7.90;99.90;;;6.75;100.00;95338.22;5091082;28;20436;-75
2022/11/17 06:28:30;;;;;;;14.88;7.38;;;7.80;99.90;;;6.75;100.00;95346.13;5090944;28;20413;-75
2022/11/17 06:30:58;;;;;;;15.30;6.93;;;7.80;99.90;;;6.66;100.00;95337.25;5090559;28;20401;-74
2022/11/17 06:33:25;;;;;;;18.20;7.50;;;7.80;99.90;;;6.58;100.00;95337.84;5089741;28;20391;-74
2022/11/17 06:35:51;;;;;;;15.18;6.60;;;7.70;99.90;;;6.48;100.00;95346.59;5072464;28;20451;-75
2022/11/17 06:38:17;;;;;;;15.90;6.70;;;7.60;99.90;;;6.40;100.00;95338.50;5090782;28;20398;-74
2022/11/17 06:40:43;;;;;;;19.50;8.10;;;7.60;99.90;;;6.32;100.00;95346.97;5090552;28;21067;-74
2022/11/17 06:43:10;;;;;;;21.83;7.82;;;7.50;99.90;;;6.25;100.00;95349.13;5071636;28;20435;-74
2022/11/17 06:45:38;;;;;;;13.97;6.60;;;7.40;99.90;;;6.21;100.00;95362.03;5090545;28;20822;-74
2022/11/17 06:48:06;;;;;;;13.57;6.75;;;7.30;99.90;;;6.20;100.00;95366.50;5090650;28;20886;-74
2022/11/17 06:50:33;;;;;;;14.55;6.38;;;7.30;99.90;;;6.22;100.00;95368.84;5090263;28;20501;-73
2022/11/17 06:53:00;;;;;;;12.45;6.65;;;7.30;99.90;;;6.26;100.00;95363.81;5088731;28;20492;-74
2022/11/17 06:55:27;;;;;;;13.90;6.65;;;7.30;99.90;;;6.31;100.00;95350.69;5086507;28;20437;-73
2022/11/17 06:57:59;;;;;;;19.70;7.70;;;7.40;99.90;;;6.36;100.00;95348.78;5084188;28;20405;-73
2022/11/17 07:00:27;;;;;;;19.95;7.88;;;7.50;99.90;;;6.40;100.00;95359.53;5084835;28;20423;-74
2022/11/17 07:02:58;;;;;;;20.75;7.32;;;7.50;99.90;;;6.38;100.00;95367.69;5089035;28;20528;-74
2022/11/17 07:05:24;;;;;;;13.43;6.65;;;7.50;99.90;;;6.37;100.00;95358.25;5088533;28;20402;-73
2022/11/17 07:07:49;;;;;;;14.45;6.65;;;7.50;99.90;;;6.38;100.00;95351.16;5080836;28;20977;-73
2022/11/17 07:10:16;;;;;;;13.35;6.80;;;7.50;99.90;;;6.33;100.00;95332.78;5078638;28;20471;-74
2022/11/17 07:12:44;;;;;;;14.48;7.18;;;7.50;99.90;;;6.32;100.00;95346.97;5078891;28;20414;-74
2022/11/17 07:15:10;;;;;;;14.17;6.57;;;7.40;99.90;;;6.27;100.00;95358.31;5062738;28;20419;-74
2022/11/17 07:17:37;;;;;;;14.63;6.97;;;7.40;99.90;;;6.26;100.00;95358.56;5087547;28;20972;-73
2022/11/17 07:20:04;;;;;;;14.50;6.60;;;7.40;99.90;;;6.26;100.00;95361.19;5084345;28;20422;-73
2022/11/17 07:22:30;;;;;;;12.73;6.30;;;7.40;99.90;;;6.33;100.00;95357.22;5075912;28;20712;-74
2022/11/17 07:24:56;;;;;;;14.50;6.43;;;7.40;99.90;;;6.46;100.00;95361.88;5088608;28;20729;-74
2022/11/17 07:27:22;;;;;;;22.25;7.50;;;7.50;99.90;;;6.55;100.00;95360.19;5086917;28;20413;-73
2022/11/17 07:29:48;;;;;;;11.73;5.55;;;7.60;99.90;;;6.68;100.00;95363.28;5084581;28;20429;-74
2022/11/17 07:32:14;;;;;;;12.53;5.90;;;7.70;99.90;;;6.80;100.00;95363.69;5084208;28;20917;-74
2022/11/17 07:34:41;;;;;;;11.70;5.40;;;7.80;99.90;;;6.87;100.00;95357.03;5082689;28;20411;-73
2022/11/17 07:37:07;;;;;;;9.82;5.03;;;7.90;99.90;;;6.93;100.00;95344.63;5069044;28;20438;-74
2022/11/17 07:39:33;;;;;;;9.75;4.60;;;8.00;99.90;;;6.99;100.00;95344.28;5084801;28;20409;-74
2022/11/17 07:41:59;;;;;;;7.25;4.43;;;8.00;99.90;;;7.02;100.00;95337.69;5079340;28;20425;-73
2022/11/17 07:44:25;;;;;;;10.20;4.40;;;8.00;99.90;;;7.02;100.00;95339.56;5083901;28;20769;-73
2022/11/17 07:46:51;;;;;;;8.77;4.80;;;8.10;99.90;;;7.00;100.00;95347.72;5090700;28;20462;-73
2022/11/17 07:49:17;;;;;;;12.75;5.03;;;8.00;99.90;;;6.96;100.00;95344.88;5075375;28;20434;-73
2022/11/17 07:51:44;;;;;;;7.60;4.38;;;8.00;99.90;;;7.11;100.00;95346.56;5093602;28;20394;-73
2022/11/17 07:54:10;;;;;;;9.32;4.70;;;8.10;99.90;;;7.20;100.00;95339.63;5091269;28;20406;-75
2022/11/17 07:56:36;;;;;;;9.07;3.70;;;8.20;99.90;;;7.38;100.00;95338.13;5073112;28;20560;-74
2022/11/17 07:59:01;;;;;;;9.55;3.47;;;8.40;99.90;;;7.53;100.00;95340.56;5083872;28;20418;-74
2022/11/17 08:01:28;;;;;;;9.00;3.28;;;8.50;99.90;;;7.64;100.00;95341.25;5090192;28;20513;-74
2022/11/17 08:03:54;;;;;;;6.85;2.78;;;8.60;99.90;;;7.73;100.00;95339.56;5084429;28;20489;-74
2022/11/17 08:06:22;;;;;;;8.57;2.60;;;8.70;99.90;;;7.92;100.00;95334.28;5074194;28;20806;-73
2022/11/17 08:08:50;;;;;;;7.95;2.20;;;8.80;99.90;;;8.05;100.00;95346.75;5082507;28;20915;-73
2022/11/17 08:11:18;;;;;;;9.87;2.10;;;9.00;99.90;;;8.06;100.00;95353.59;5082221;28;20410;-73
2022/11/17 08:13:44;;;;;;;5.20;1.93;;;9.00;99.90;;;8.06;100.00;95353.59;5082612;28;20464;-74
2022/11/17 08:16:11;;;;;;;4.80;1.98;;;9.00;99.90;;;8.17;100.00;95362.94;5091577;28;20405;-73
2022/11/17 08:18:38;;;;;;;6.28;1.73;;;9.10;99.90;;;8.41;100.00;95357.63;5092960;28;20401;-74
2022/11/17 08:21:06;;;;;;;7.90;1.80;;;9.30;99.90;;;8.44;100.00;95357.03;5084149;28;20403;-73
2022/11/17 08:23:33;;;;;;;4.78;1.50;;;9.40;99.90;;;8.71;100.00;95351.88;5072040;28;20426;-73
2022/11/17 08:26:01;;;;;;;10.57;1.73;;;9.60;99.90;;;8.67;100.00;95361.44;5087472;28;21776;-73
2022/11/17 08:28:27;;;;;;;10.77;1.83;;;9.60;99.90;;;8.88;100.00;95351.31;5087893;28;20402;-74
2022/11/17 08:30:53;;;;;;;5.20;1.60;;;9.70;99.90;;;8.77;100.00;95353.38;5090236;28;20410;-74
2022/11/17 08:33:19;;;;;;;5.37;1.40;;;9.70;99.90;;;8.78;100.00;95349.66;5090820;28;20449;-73
2022/11/17 08:35:45;;;;;;;7.70;1.60;;;9.70;99.90;;;8.86;100.00;95349.00;5090720;28;20480;-73
2022/11/17 08:38:11;;;;;;;4.80;1.52;;;9.70;99.90;;;8.92;100.00;95345.19;5091047;28;20402;-74
2022/11/17 08:40:37;;;;;;;4.63;1.30;;;9.80;99.90;;;8.83;100.00;95354.84;5090734;28;20714;-73
2022/11/17 08:43:04;;;;;;;6.28;1.30;;;9.80;99.90;;;8.98;100.00;95348.53;5090111;28;20406;-73
2022/11/17 08:45:30;;;;;;;5.57;1.25;;;9.90;99.90;;;8.93;100.00;95344.13;5091132;28;20402;-74
2022/11/17 08:47:56;;;;;;;4.75;1.35;;;9.80;99.90;;;8.88;100.00;95356.59;5091165;28;20762;-74
2022/11/17 08:50:22;;;;;;;7.97;1.80;;;9.80;99.90;;;9.02;100.00;95367.22;5091225;28;20398;-74
2022/11/17 08:52:48;;;;;;;6.25;1.42;;;9.90;99.90;;;8.94;100.00;95376.56;5091411;28;20405;-74
2022/11/17 08:55:14;;;;;;;4.70;1.30;;;9.80;99.90;;;8.99;100.00;95379.13;5092188;28;20406;-74
2022/11/17 08:57:40;;;;;;;7.13;1.40;;;9.80;99.90;;;9.11;100.00;95370.72;5092688;28;20735;-74
2022/11/17 09:00:09;;;;;;;3.92;1.33;;;10.00;99.90;;;9.13;100.00;95368.59;5092479;28;20475;-74
2022/11/17 09:02:37;;;;;;;4.82;1.10;;;10.10;99.90;;;9.12;100.00;95369.66;5092233;28;20402;-74
2022/11/17 09:05:04;;;;;;;5.80;1.42;;;10.00;99.90;;;9.13;100.00;95372.00;5091987;28;20483;-73
2022/11/17 09:07:32;;;;;;;3.63;1.50;;;10.00;99.90;;;9.10;100.00;95387.63;5092611;28;20390;-74
2022/11/17 09:09:59;;;;;;;5.75;1.20;;;10.00;99.90;;;9.33;100.00;95391.97;5092670;28;21042;-74
2022/11/17 09:12:24;;;;;;;3.70;1.33;;;10.20;99.90;;;9.36;100.00;95388.78;5092683;28;20398;-74
2022/11/17 09:14:50;;;;;;;5.75;1.40;;;10.20;99.90;;;9.64;100.00;95392.22;5091644;28;20397;-74
2022/11/17 09:17:18;;;;;;;3.85;1.08;;;10.40;99.90;;;9.75;100.00;95390.16;5092291;28;20764;-74
2022/11/17 09:19:44;;;;;;;3.03;1.10;;;10.60;99.90;;;9.77;100.00;95388.03;5092134;28;20414;-74
2022/11/17 09:22:09;;;;;;;5.47;1.10;;;10.60;99.90;;;9.86;100.00;95391.50;5091904;28;20801;-74
2022/11/17 09:24:35;;;;;;;2.20;1.10;;;10.70;99.90;;;9.97;100.00;95385.75;5072506;28;20418;-74
2022/11/17 09:27:02;;;;;;;4.10;1.10;;;10.80;99.90;;;10.01;100.00;95393.84;5091990;28;20455;-74
2022/11/17 09:29:28;;;;;;;2.10;1.03;;;10.90;99.90;;;10.11;100.00;95393.66;5105030;22;20498;-79
2022/11/17 09:32:12;;;;;;;4.47;1.23;;;10.90;99.90;;;10.25;100.00;95401.59;5091265;28;20394;-80
2022/11/17 09:34:39;;;;;;;5.22;1.38;;;11.00;99.90;;;10.40;100.00;95393.31;5090137;28;20423;-78
2022/11/17 09:37:05;;;;;;;4.72;1.13;;;11.10;99.90;;;10.64;100.00;95403.66;5092112;28;20456;-77
2022/11/17 09:39:31;;;;;;;6.63;1.50;;;11.40;99.90;;;10.86;100.00;95401.78;5091904;28;20445;-78
2022/11/17 09:41:57;;;;;;;2.40;1.00;;;11.60;99.90;;;10.94;100.00;95405.59;5091987;28;20432;-78
2022/11/17 09:44:38;;;;;;;4.30;1.20;;;11.70;99.90;;;10.77;100.00;95408.88;5072919;28;20433;-79
2022/11/17 09:47:18;;;;;;;4.50;1.05;;;11.60;99.90;;;10.55;100.00;95413.38;5091354;28;20409;-79
2022/11/17 09:49:56;;;;;;;5.45;1.10;;;11.40;99.90;;;10.58;100.00;95418.84;5090509;28;20877;-79
2022/11/17 09:52:27;;;;;;;3.92;1.23;;;11.40;99.90;;;10.52;100.00;95414.75;5091602;28;20556;-78
2022/11/17 09:54:56;;;;;;;5.60;1.33;;;11.40;99.90;;;10.59;100.00;95411.72;5091083;28;20398;-79
2022/11/17 09:57:33;;;;;;;5.77;1.23;;;11.40;99.90;;;10.87;100.00;95426.41;5091874;28;20451;-79
2022/11/17 10:00:06;;;;;;;6.03;1.35;;;11.60;99.90;;;10.78;100.00;95421.03;5091455;28;20512;-79
2022/11/17 10:02:32;;;;;;;4.13;1.25;;;11.60;99.90;;;10.70;100.00;95434.19;5091256;28;20394;-79
2022/11/17 10:05:00;;;;;;;8.60;1.40;;;11.50;99.90;;;10.69;100.00;95416.75;5090744;28;20483;-79
2022/11/17 10:07:29;;;;;;;7.85;1.63;;;11.50;99.90;;;10.72;100.00;95432.03;5090434;28;20439;-78
2022/11/17 10:09:55;;;;;;;3.67;1.10;;;11.50;99.90;;;10.85;100.00;95441.78;5091440;28;20390;-78
2022/11/17 10:12:25;;;;;;;7.50;1.70;;;11.60;99.90;;;11.29;100.00;95432.28;5091142;28;20447;-78
2022/11/17 10:14:53;;;;;;;3.45;1.00;;;12.00;99.90;;;11.85;100.00;95429.00;5090313;28;20417;-78
2022/11/17 10:17:19;;;;;;;5.63;1.45;;;12.70;99.90;;;12.59;100.00;95429.81;5091163;28;20402;-78
2022/11/17 10:19:45;;;;;;;6.85;1.70;;;13.30;99.90;;;13.00;100.00;95432.00;5090910;28;20497;-77
2022/11/17 10:22:32;;;;;;;6.15;1.65;;;13.80;99.90;;;13.34;100.00;95423.22;5091238;28;20883;-78
2022/11/17 10:24:58;;;;;;;6.38;1.50;;;14.10;99.90;;;13.36;100.00;95433.53;5090700;28;20428;-78
2022/11/17 10:27:27;;;;;;;4.65;1.48;;;14.20;99.90;;;13.32;100.00;95416.66;5091097;28;20455;-78
2022/11/17 10:29:58;;;;;;;7.55;1.70;;;14.20;99.90;;;12.91;100.00;95414.50;5090789;28;20485;-77
2022/11/17 10:32:25;;;;;;;4.93;1.40;;;13.80;99.90;;;12.64;100.00;95427.00;5090997;28;20398;-78
2022/11/17 10:34:51;;;;;;;4.22;1.40;;;13.40;99.90;;;12.63;100.00;95412.16;5090179;28;20402;-78
2022/11/17 10:37:29;;;;;;;4.63;1.40;;;13.40;99.90;;;12.82;100.00;95417.16;5091156;28;20413;-78
2022/11/17 10:40:18;;;;;;;4.53;1.48;;;13.60;99.90;;;12.70;100.00;95419.66;5090683;28;20839;-78
2022/11/17 10:42:56;;;;;;;10.05;2.00;;;13.60;99.90;;;12.69;100.00;95424.19;5079906;28;20412;-78
2022/11/17 10:45:22;;;;;;;8.40;1.60;;;13.50;99.90;;;12.30;100.00;95422.44;5078149;28;20410;-77
2022/11/17 10:47:49;;;;;;;7.07;1.52;;;13.20;99.90;;;12.07;100.00;95428.94;5078119;28;20410;-78
2022/11/17 10:50:22;;;;;;;5.95;1.42;;;12.90;99.90;;;11.72;100.00;95435.94;5089141;28;20929;-79
2022/11/17 10:52:52;;;;;;;7.15;1.77;;;12.70;99.90;;;11.69;100.00;95425.94;5086747;28;20402;-79
2022/11/17 10:55:27;;;;;;;7.00;1.83;;;12.50;99.90;;;11.79;100.00;95428.38;5083739;28;22331;-78
2022/11/17 10:58:07;;;;;;;5.40;1.70;;;12.60;99.90;;;11.71;100.00;95428.31;5084955;28;20801;-80